Aérodrome :
LOGIN :

S'inscrire | Disclaimer

   EN    FR    IT 

 










Légende :    VFR   VFR Marginal   IFR   IFR Intensif   IFR Très Intensif
Visi : 
Plafond : 
>= 8 km
>= 3000ft
5 à 8 km
1000 à 3000 ft
1500m à 5 km
500 à 1000 ft
800 à 1500m
200 à 500 ft
< 800m
< 200 ft
Symboles :   Orages  Brouillard  Fortes neiges  Fortes précipitations  Vent > 20 kt
SIGMETs :   Divers  Orages  Givrage  Turbulence  Onde Orograph.  Cendres Volcan.







- Altitude de l'aérodrome : 796 ft
- Code IATA : SYT
- Voir les cartes d'approche


LFLN - Saint-Yan

DERNIER METAR :
  • 251100Z AUTO 03010KT 9999 SCT035 01/M08 Q1015 NOSIG

METARs EXPIRÉS :
  • 251030Z AUTO 02013KT CAVOK 01/M07 Q1015 NOSIG
  • 251000Z AUTO 02011KT CAVOK 00/M07 Q1015 NOSIG
  • 250930Z AUTO 03012KT CAVOK M00/M07 Q1015 NOSIG
  • 250900Z AUTO 04013KT CAVOK M01/M08 Q1015 NOSIG
  • 250830Z AUTO 02014KT 9999 SCT038 M01/M08 Q1014 NOSIG

TAF TAF LFLN
Valide du 25 à 09h jusqu'au 25 à 18h UTC


250800Z 2509/2518 03012KT 9999 BKN030
BECMG 2509/2512 05015KT CAVOK
Pas de NOTAMs connus pour ce terrain.



MET'MAP, la Météo Aéronautique d'un coup d'oeil ! - Copyright ORBIFLY Décembre 2007 - Disclaimer

ORBIFLY MET'MAP TEAM :

Programmation & Développement : Alexandra Zaïnal
Conception & Développement : Baudouin d'Aumeries
Co-Programmation & Développement : Marc-Olivier Méhu
Soutien technique & logistique : Manuel Goepfert

Contact : metmap@orbifly.com




SOURCES & CREDITS :

   NOAA